Portada
METAR-TAF:

METAR-TAF

Aeroports :

Rodrigues, Maurici

latitud: 19-41S, longitud: 063-25E, altitud: 58 m

Observació

L'informe es va fer fa 20 hores i 54 minuts, a les 04:00 UTC
Vent 16 kt del Sud/Sud-Est
Temperatura 28°C
Humitat 84%
Pressió 1007 hPa
Visibilitat 10 km o més
Núvols disperses a una alçada de 1700 ft
Núvols disperses a una alçada de 25000 ft

METAR: FIMR 030400Z 15016KT 9999 SCT017 SCT250 28/25 Q1007

Hora: 04:54 (00:54 UTC)

Pronòstic

L'informe es va fer fa 1 hora i 4 minuts, a les 23:50 UTC
Pronòstic vàlid del 04 a les 00 UTC al 04 a les 18 UTC
Vent 12 kt del Sud-Est
Visibilitat 10 km o més
Núvols disperses a una alçada de 1800 ft

TAF: FIMR 032350Z 0400/0418 13012KT 9999 SCT018

Observacions i pronòstics meteorològics de més de 4000 aeroports (METAR i TAF).

Les estacions disponibles són els punts grocs i vermells al mapa.

Posi el ratolí al punt desitjat per veure el nom de l'estació.

Feu clic per veure les observacions i els pronòstics meteorològics.

Per canviar el mapa: feu clic els botons verds amb una creu de color negre per apropar; al botó verd amb un guió per allunyar la imatge; o en les fletxes verdes per a mapes adjacents.


METAR-TAF: